Oakey, Australia
Current Conditions -  °F | °C
As of 2:00 AM on Friday 30 Jan 2015 (Local Time) from YBOK Reporting Station
Clear Clear  
Wind Chill: 64°   Ceiling: Unl
Heat Index: 64°   Visibility: 6mi
Dew Point: 63°   Wind: 7mph
Humidity: 94%   Direction: 60°ENE
Pressure: 29.83"   Gusts: NA
Location:  27.43°S, 151.72°E
Report Text: YBOK 291600Z AUTO 06006KT 9999 // NCD 18/17 Q1010
Loading
Personal Weather Stations






























Interactive Weather Map New forecast layout! Learn more

10-Day Weather Forecast

Advertisements
Track Severe Weather on mobile